createdAt,value
2023-03-02T00:01:50.607Z,59.50
2023-03-02T00:02:50.520Z,59.51
2023-03-02T00:03:50.442Z,56.80
2023-03-02T00:04:50.284Z,56.73
2023-03-02T00:05:50.149Z,56.42
2023-03-02T00:06:50.042Z,55.62
2023-03-02T00:07:49.935Z,55.40
2023-03-02T00:08:49.829Z,56.40
2023-03-02T00:09:49.704Z,56.44
2023-03-02T00:10:49.612Z,56.75
2023-03-02T00:11:49.502Z,54.90
2023-03-02T00:12:49.363Z,56.94
2023-03-02T00:13:49.254Z,55.97
2023-03-02T00:14:49.140Z,55.51
2023-03-02T00:15:49.066Z,52.91
2023-03-02T00:16:48.911Z,55.07
2023-03-02T00:17:48.793Z,53.50
2023-03-02T00:18:48.697Z,55.26
2023-03-02T00:19:48.583Z,54.30
2023-03-02T00:20:48.486Z,55.23
2023-03-02T00:21:48.357Z,55.34
2023-03-02T00:22:48.247Z,56.60
2023-03-02T00:23:48.136Z,55.99
2023-03-02T00:24:48.122Z,54.23
2023-03-02T00:25:47.927Z,54.59
2023-03-02T00:26:47.834Z,55.59
2023-03-02T00:27:47.716Z,54.39
2023-03-02T01:42:39.390Z,48.17
2023-03-02T01:43:39.292Z,44.93
2023-03-02T01:44:39.161Z,48.56
2023-03-02T01:45:39.097Z,47.04
2023-03-02T01:46:38.935Z,47.99
2023-03-02T01:47:38.953Z,47.75
2023-03-02T01:48:38.725Z,47.69
2023-03-02T01:49:38.691Z,46.31
2023-03-02T01:50:38.503Z,46.62
2023-03-02T01:51:38.372Z,47.52
2023-03-02T01:52:38.298Z,46.56
2023-03-02T01:53:38.136Z,47.94
2023-03-02T01:54:38.016Z,48.12
2023-03-02T01:55:37.922Z,46.06
2023-03-02T01:56:37.815Z,46.77
2023-03-02T02:39:33.121Z,43.57
2023-03-02T02:40:33.093Z,40.30
2023-03-02T02:41:32.921Z,42.15
2023-03-02T02:42:32.824Z,39.82
2023-03-02T02:43:32.748Z,41.49
2023-03-02T02:44:32.591Z,42.16
2023-03-02T02:45:32.514Z,42.78
2023-03-02T02:46:32.801Z,39.27
2023-03-02T02:47:32.274Z,41.98
2023-03-02T02:48:32.173Z,39.99
2023-03-02T02:49:32.044Z,36.60
2023-03-02T02:50:31.955Z,42.41
2023-03-02T02:51:31.831Z,40.78
2023-03-02T02:52:31.751Z,44.32
2023-03-02T02:53:31.609Z,39.07
2023-03-02T02:54:31.507Z,42.00
2023-03-02T02:55:31.407Z,41.60
2023-03-02T02:56:31.661Z,40.76
2023-03-02T02:57:31.177Z,40.58
2023-03-02T02:58:31.102Z,39.66
2023-03-02T02:59:31.034Z,35.60
2023-03-02T03:00:30.860Z,37.65
2023-03-02T03:01:30.768Z,37.28
2023-03-02T03:02:30.633Z,37.08
2023-03-02T03:03:30.525Z,38.46
2023-03-02T03:04:30.474Z,38.13
2023-03-02T03:05:30.290Z,38.38
2023-03-02T03:06:30.693Z,34.99
2023-03-02T03:07:30.058Z,36.26
2023-03-02T03:08:29.949Z,35.71
2023-03-02T03:09:29.915Z,38.85
2023-03-02T03:10:29.727Z,34.23
2023-03-02T03:11:29.613Z,38.28
2023-03-02T03:12:29.489Z,36.88
2023-03-02T03:13:29.367Z,36.23
2023-03-02T03:14:29.266Z,36.88
2023-03-02T03:15:29.147Z,37.97
2023-03-02T03:16:29.134Z,38.16
2023-03-02T03:17:28.920Z,37.50
2023-03-02T03:18:28.801Z,34.01
2023-03-02T03:19:28.689Z,37.17
2023-03-02T03:20:28.597Z,36.79
2023-03-02T03:21:28.452Z,37.14
2023-03-02T03:22:28.417Z,34.31
2023-03-02T03:23:28.221Z,36.94
2023-03-02T03:24:28.114Z,34.29
2023-03-02T03:25:28.009Z,35.72
2023-03-02T03:26:27.884Z,36.72
2023-03-02T03:27:27.833Z,34.82
2023-03-02T04:53:18.352Z,27.46
2023-03-02T04:54:18.247Z,25.00
2023-03-02T04:55:18.189Z,32.29
2023-03-02T04:56:18.015Z,30.64
2023-03-02T04:57:17.909Z,32.52
2023-03-02T04:58:17.785Z,28.36
2023-03-02T05:29:14.734Z,28.95
2023-03-02T05:30:14.560Z,31.21
2023-03-02T05:31:14.481Z,28.63
2023-03-02T05:32:14.460Z,29.49
2023-03-02T05:33:14.251Z,30.59
2023-03-02T05:34:14.157Z,26.83
2023-03-02T05:35:14.274Z,29.46
2023-03-02T05:36:13.952Z,28.82
2023-03-02T05:37:13.862Z,29.39
2023-03-02T05:39:13.655Z,29.99
2023-03-02T05:40:13.568Z,29.49
2023-03-02T05:42:13.360Z,29.70
2023-03-02T05:43:13.365Z,26.00
2023-03-02T05:44:13.134Z,28.34
2023-03-02T05:45:13.030Z,29.92
2023-03-02T05:46:12.952Z,28.30
2023-03-02T05:47:12.886Z,30.11
2023-03-02T05:48:12.732Z,30.53
2023-03-02T05:49:12.604Z,31.17
2023-03-02T05:50:12.512Z,27.39
2023-03-02T05:51:12.411Z,30.24
2023-03-02T06:27:08.760Z,47.61
2023-03-02T06:28:08.677Z,61.62
2023-03-02T06:29:08.575Z,61.72
2023-03-02T06:31:08.397Z,73.79
2023-03-02T06:33:08.130Z,85.84
2023-03-02T06:34:08.013Z,91.70
2023-03-02T06:35:08.091Z,96.27
2023-03-02T06:36:08.069Z,110.16
2023-03-02T07:17:02.096Z,218.80
2023-03-02T07:18:01.864Z,235.48
2023-03-02T07:19:01.695Z,246.83
2023-03-02T07:20:01.525Z,247.13
2023-03-02T07:21:01.345Z,249.66
2023-03-02T07:22:01.185Z,249.94
2023-03-02T07:23:01.014Z,248.50
2023-03-02T07:24:00.919Z,248.72
2023-03-02T07:25:00.662Z,248.97
2023-03-02T07:26:00.490Z,247.70
2023-03-02T07:27:00.312Z,249.45
2023-03-02T07:28:00.197Z,248.65
2023-03-02T07:29:00.677Z,250.47
2023-03-02T07:29:59.795Z,250.35
2023-03-02T07:30:59.655Z,252.56
2023-03-02T07:31:59.465Z,247.30
2023-03-02T07:32:59.266Z,250.00
2023-03-02T07:33:59.080Z,259.74
2023-03-02T07:34:58.906Z,249.87
2023-03-02T07:35:58.796Z,247.18
2023-03-02T07:36:58.564Z,243.82
2023-03-02T07:37:58.396Z,244.48
2023-03-02T07:38:58.215Z,243.91
2023-03-02T07:40:00.566Z,245.38
2023-03-02T07:40:57.860Z,248.67
2023-03-02T08:08:53.030Z,250.00
2023-03-02T08:09:52.892Z,249.87
2023-03-02T08:10:52.737Z,249.59
2023-03-02T08:11:52.702Z,250.00
2023-03-02T08:12:52.469Z,249.84
2023-03-02T08:13:52.350Z,248.94
2023-03-02T08:14:52.263Z,249.26
2023-03-02T08:15:52.109Z,248.96
2023-03-02T08:16:51.953Z,249.05
2023-03-02T08:28:50.024Z,240.11
2023-03-02T08:29:49.862Z,239.60
2023-03-02T08:30:49.770Z,239.44
2023-03-02T08:31:49.582Z,236.84
2023-03-02T08:32:49.423Z,237.75
2023-03-02T08:33:50.201Z,236.39
2023-03-02T08:34:49.070Z,236.51
2023-03-02T08:35:50.078Z,235.20
2023-03-02T08:36:48.849Z,235.44
2023-03-02T08:37:48.659Z,234.89
2023-03-02T08:38:48.464Z,234.65
2023-03-02T08:39:48.322Z,233.91
2023-03-02T08:40:48.149Z,232.37
2023-03-02T08:41:48.006Z,232.04
2023-03-02T08:42:48.022Z,232.24
2023-03-02T09:26:41.463Z,71.65
2023-03-02T09:30:41.016Z,62.43
2023-03-02T09:33:40.639Z,58.24
2023-03-02T09:36:40.340Z,55.33
2023-03-02T09:38:40.063Z,54.69
2023-03-02T09:40:39.842Z,52.92
2023-03-02T09:41:39.715Z,52.53
2023-03-02T09:43:39.481Z,50.42
2023-03-02T09:44:39.349Z,49.47
2023-03-02T09:45:39.415Z,48.37
2023-03-02T09:46:39.225Z,49.09
2023-03-02T09:47:38.993Z,47.91
2023-03-02T09:48:38.873Z,47.36
2023-03-02T09:49:38.752Z,47.15
2023-03-02T09:50:38.632Z,45.88
2023-03-02T09:51:38.539Z,45.75
2023-03-02T09:52:38.383Z,45.44
2023-03-02T09:53:38.241Z,44.15
2023-03-02T09:54:38.252Z,43.91
2023-03-02T09:55:38.014Z,43.82
2023-03-02T09:56:38.229Z,42.80
2023-03-02T09:57:37.764Z,41.70
2023-03-02T10:17:35.392Z,33.28
2023-03-02T10:18:35.284Z,33.97
2023-03-02T10:19:37.729Z,33.65
2023-03-02T10:20:35.204Z,33.39
2023-03-02T10:21:35.067Z,33.27
2023-03-02T10:22:35.913Z,33.40
2023-03-02T10:23:34.727Z,33.42
2023-03-02T10:24:34.578Z,32.66
2023-03-02T10:25:34.409Z,33.47
2023-03-02T10:26:34.586Z,32.74
2023-03-02T10:27:34.131Z,32.79
2023-03-02T10:28:33.966Z,32.97
2023-03-02T10:29:33.779Z,32.07
2023-03-02T10:30:33.656Z,31.75
2023-03-02T10:31:33.445Z,31.12
2023-03-02T10:32:33.364Z,31.76
2023-03-02T10:33:33.115Z,30.85
2023-03-02T10:34:33.036Z,30.91
2023-03-02T10:35:32.809Z,33.33
2023-03-02T10:36:32.765Z,31.53
2023-03-02T10:37:32.542Z,31.59
2023-03-02T10:38:32.482Z,30.95
2023-03-02T10:39:32.269Z,30.89
2023-03-02T10:40:32.145Z,31.76
2023-03-02T10:41:32.040Z,30.71
2023-03-02T10:42:32.145Z,31.16
2023-03-02T10:43:31.789Z,29.21
2023-03-02T10:44:31.679Z,29.71
2023-03-02T10:45:31.616Z,28.90
2023-03-02T10:46:31.951Z,28.91
2023-03-02T10:47:31.322Z,29.06
2023-03-02T10:48:31.194Z,31.36
2023-03-02T10:49:31.060Z,30.97
2023-03-02T10:50:30.992Z,30.54
2023-03-02T11:11:28.492Z,29.51
2023-03-02T11:12:28.346Z,29.74
2023-03-02T11:13:28.236Z,28.60
2023-03-02T11:14:28.119Z,28.11
2023-03-02T11:15:27.993Z,27.25
2023-03-02T11:16:27.953Z,28.84
2023-03-02T11:17:27.798Z,27.48
2023-03-02T12:20:20.841Z,28.69
2023-03-02T12:21:20.599Z,28.86
2023-03-02T12:22:20.480Z,28.25
2023-03-02T12:23:20.357Z,28.84
2023-03-02T12:24:20.295Z,28.30
2023-03-02T12:25:20.159Z,29.07
2023-03-02T12:26:20.116Z,27.49
2023-03-02T12:27:19.885Z,28.09
2023-03-02T12:28:19.862Z,27.84
2023-03-02T12:29:19.692Z,28.14
2023-03-02T12:30:19.604Z,29.27
2023-03-02T12:31:19.481Z,29.64
2023-03-02T12:32:19.371Z,28.43
2023-03-02T12:33:19.214Z,28.46
2023-03-02T12:35:19.040Z,29.29
2023-03-02T12:36:18.736Z,28.77
2023-03-02T12:37:18.601Z,29.02
2023-03-02T12:38:18.514Z,29.00
2023-03-02T12:39:18.352Z,28.75
2023-03-02T12:40:18.149Z,28.82
2023-03-02T12:41:17.960Z,29.57
2023-03-02T12:42:17.799Z,28.25
2023-03-02T12:56:15.663Z,31.02
2023-03-02T12:57:15.475Z,29.69
2023-03-02T13:01:14.867Z,30.74
2023-03-02T13:36:09.220Z,28.59
2023-03-02T13:40:08.727Z,30.52
2023-03-02T13:41:10.867Z,27.55
2023-03-02T13:42:08.800Z,27.65
2023-03-02T13:43:08.359Z,29.42
2023-03-02T13:44:08.238Z,28.60
2023-03-02T13:45:08.134Z,29.31
2023-03-02T13:46:08.100Z,29.11
2023-03-02T13:47:07.908Z,29.44
2023-03-02T13:48:07.793Z,29.52
2023-03-02T13:49:10.594Z,30.56
2023-03-02T14:51:00.809Z,27.73
2023-03-02T14:51:58.158Z,27.87
2023-03-02T14:52:58.012Z,26.98
2023-03-02T14:53:57.840Z,27.86
2023-03-02T15:49:48.862Z,28.47
2023-03-02T15:51:48.632Z,26.14
2023-03-02T15:52:48.516Z,26.96
2023-03-02T15:53:48.395Z,27.48
2023-03-02T15:54:48.268Z,27.42
2023-03-02T15:55:48.329Z,27.32
2023-03-02T15:56:48.033Z,27.79
2023-03-02T15:57:47.905Z,26.92
2023-03-02T15:58:47.796Z,26.09
2023-03-02T17:11:39.027Z,25.42
2023-03-02T17:12:38.899Z,26.69
2023-03-02T17:13:38.844Z,28.11
2023-03-02T17:15:38.539Z,27.13
2023-03-02T17:16:38.418Z,25.37
2023-03-02T17:17:38.276Z,27.85
2023-03-02T17:18:38.132Z,25.89
2023-03-02T17:19:38.015Z,26.55
2023-03-02T17:20:37.874Z,27.38
2023-03-02T17:21:37.751Z,28.77
2023-03-02T18:10:31.610Z,27.13
2023-03-02T18:11:31.492Z,26.91
2023-03-02T18:12:31.359Z,26.10
2023-03-02T18:13:31.230Z,26.31
2023-03-02T18:14:31.097Z,26.87
2023-03-02T18:15:30.958Z,27.38
2023-03-02T18:16:30.898Z,26.03
2023-03-02T18:17:30.718Z,26.96
2023-03-02T18:18:30.584Z,25.86
2023-03-02T18:35:28.437Z,25.97
2023-03-02T18:36:28.308Z,27.55
2023-03-02T18:37:28.224Z,25.92
2023-03-02T18:38:28.379Z,25.20
2023-03-02T18:39:27.936Z,26.78
2023-03-02T18:40:27.875Z,26.02
2023-03-02T18:41:28.366Z,26.42
2023-03-02T19:19:22.835Z,27.95
2023-03-02T19:20:22.703Z,27.01
2023-03-02T19:21:22.573Z,27.29
2023-03-02T19:22:22.529Z,28.21
2023-03-02T19:23:23.333Z,26.80
2023-03-02T19:24:22.207Z,26.20
2023-03-02T19:25:22.062Z,26.29
2023-03-02T19:26:22.016Z,25.46
2023-03-02T19:27:21.844Z,26.59
2023-03-02T19:28:21.812Z,27.20
2023-03-02T19:29:21.537Z,26.91
2023-03-02T19:30:21.422Z,26.34
2023-03-02T19:31:21.371Z,26.24
2023-03-02T19:32:21.261Z,25.42
2023-03-02T19:33:21.045Z,27.85
2023-03-02T19:34:20.908Z,26.10
2023-03-02T19:35:20.825Z,26.70
2023-03-02T19:36:20.650Z,26.77
2023-03-02T19:37:20.511Z,26.54
2023-03-02T19:38:20.380Z,26.74
2023-03-02T19:39:20.242Z,27.98
2023-03-02T19:40:20.135Z,26.57
2023-03-02T19:41:20.002Z,27.30
2023-03-02T19:42:19.858Z,28.10
2023-03-02T19:43:19.718Z,27.30
2023-03-02T19:44:19.584Z,26.86
2023-03-02T19:45:19.459Z,26.76
2023-03-02T19:46:19.368Z,26.85
2023-03-02T19:47:19.200Z,26.24
2023-03-02T19:48:19.061Z,25.84
2023-03-02T19:49:18.923Z,27.30
2023-03-02T19:50:18.789Z,27.08
2023-03-02T19:51:18.661Z,26.36
2023-03-02T19:52:18.525Z,28.29
2023-03-02T19:53:18.402Z,26.89
2023-03-02T19:54:18.272Z,27.27
2023-03-02T19:55:18.138Z,27.13
2023-03-02T19:56:18.009Z,26.27
2023-03-02T19:57:17.875Z,26.50
2023-03-02T19:58:17.732Z,27.47
2023-03-02T20:19:15.087Z,26.46
2023-03-02T20:20:14.993Z,26.88
2023-03-02T20:21:14.842Z,26.38
2023-03-02T20:22:14.707Z,25.11
2023-03-02T20:23:14.604Z,26.63
2023-03-02T20:24:14.480Z,27.03
2023-03-02T20:25:14.376Z,26.31
2023-03-02T20:27:14.170Z,26.76
2023-03-02T20:28:13.966Z,27.28
2023-03-02T20:29:13.853Z,26.41
2023-03-02T20:30:13.728Z,27.08
2023-03-02T21:00:09.891Z,25.14
2023-03-02T21:06:09.160Z,27.54
2023-03-02T21:07:09.045Z,27.67
2023-03-02T21:08:08.906Z,26.83
2023-03-02T21:09:08.793Z,26.60
2023-03-02T21:10:08.655Z,27.18
2023-03-02T21:11:08.541Z,25.47
2023-03-02T21:12:08.402Z,26.59
2023-03-02T21:13:08.297Z,26.83
2023-03-02T21:14:08.156Z,25.95
2023-03-02T21:15:08.013Z,26.61
2023-03-02T21:16:07.906Z,26.65
2023-03-02T21:17:07.758Z,25.94
2023-03-02T22:08:01.264Z,26.46
2023-03-02T22:09:01.163Z,25.34
2023-03-02T22:10:01.132Z,26.91
2023-03-02T22:11:00.891Z,27.53
2023-03-02T22:12:00.766Z,26.03
2023-03-02T22:13:00.634Z,26.81
2023-03-02T22:14:00.531Z,26.90
2023-03-02T22:15:00.384Z,26.17
2023-03-02T22:16:00.351Z,27.82
2023-03-02T22:17:00.125Z,26.96
2023-03-02T22:17:59.994Z,27.14
2023-03-02T22:18:59.866Z,25.36
2023-03-02T22:20:00.427Z,27.23
2023-03-02T22:20:59.623Z,27.15
2023-03-02T22:21:59.489Z,26.06
2023-03-02T22:22:59.367Z,27.33
2023-03-02T22:23:59.229Z,27.90
2023-03-02T22:24:59.093Z,26.65
2023-03-02T22:25:58.940Z,27.16
2023-03-02T22:26:58.815Z,27.69
2023-03-02T22:27:58.685Z,26.02
2023-03-02T22:28:58.574Z,27.33
2023-03-02T22:29:58.439Z,25.98
2023-03-02T22:30:58.412Z,27.57
2023-03-02T22:31:58.215Z,27.59
2023-03-02T22:32:58.059Z,27.90
2023-03-02T22:33:57.937Z,27.24
2023-03-02T22:34:57.803Z,27.82
2023-03-02T22:35:58.496Z,27.77
2023-03-02T23:49:48.483Z,28.27
2023-03-02T23:50:48.320Z,27.25
